Buckley, Michigan
Current Conditions -  °F | °C
As of 9:53 AM on Friday 28 Nov 2014 (Local Time) from KTVC Reporting Station
Overcast Overcast  
Wind Chill: 13°   Ceiling: 3300
Heat Index: 20°   Visibility: 10mi
Dew Point: 13°   Wind: 5mph
Humidity: 74%   Direction: 190°S
Pressure: 30.22"   Gusts: NA
Location:  44.5°N, 85.68°W
Report Text: KTVC 281453Z 19004KT 10SM BKN033 OVC080 M07/M11 A3022 RMK AO2 SLP246 T10671106 58012
Loading
Personal Weather Stations






























Interactive Weather Map New forecast layout! Learn more

10-Day Weather Forecast

Advertisements
Track Severe Weather on mobile